Time;durP1;ratioP1;P1;durP2;ratioP2;P2;SDS_P1;SDS_P2;PMS_P1;PMS_P2;Temp;Humidity;BMP_temperature;BMP_pressure;BME280_temperature;BME280_humidity;BME280_pressure;Samples;Min_cycle;Max_cycle;Signal;HPM_P1;HPM_P2
2023/06/21 00:01:00;;;;;;;0.47;0.32;;;;;;;25.91;100.00;101189.66;10372761;28;20045;-83
2023/06/21 00:06:02;;;;;;;0.28;0.25;;;;;;;25.23;100.00;101197.06;10376963;28;20068;-84
2023/06/21 00:11:04;;;;;;;0.88;0.88;;;;;;;25.63;100.00;101198.50;10378867;28;20076;-83
2023/06/21 00:16:05;;;;;;;0.88;0.68;;;;;;;25.60;100.00;101195.94;10368094;28;20042;-82
2023/06/21 00:21:07;;;;;;;1.20;0.52;;;;;;;25.38;100.00;101190.50;10372121;28;20053;-81
2023/06/21 00:26:09;;;;;;;0.65;0.60;;;;;;;25.16;100.00;101206.97;10376675;28;20046;-82
2023/06/21 00:31:10;;;;;;;1.13;0.52;;;;;;;25.37;100.00;101194.03;10374810;28;20544;-84
2023/06/21 00:36:12;;;;;;;1.40;0.98;;;;;;;24.86;100.00;101198.19;10378892;28;20057;-84
2023/06/21 00:41:14;;;;;;;2.10;1.80;;;;;;;25.05;100.00;101202.94;10376965;28;20108;-82
2023/06/21 00:46:16;;;;;;;2.97;1.00;;;;;;;25.32;100.00;101201.19;10380915;28;20048;-83
2023/06/21 00:51:18;;;;;;;0.50;0.43;;;;;;;25.09;100.00;101209.81;10371777;28;20057;-83
2023/06/21 00:56:20;;;;;;;0.20;0.20;;;;;;;25.10;100.00;101222.09;10397731;28;20575;-84
2023/06/21 01:01:22;;;;;;;1.23;1.13;;;;;;;24.75;100.00;101221.38;10380963;28;20049;-84
2023/06/21 01:06:40;;;;;;;1.05;0.68;;;;;;;25.58;100.00;101220.66;10380695;28;20052;-84
2023/06/21 01:12:04;;;;;;;0.98;0.75;;;;;;;25.05;100.00;101224.00;10373643;28;20551;-84
2023/06/21 01:17:09;;;;;;;10.95;1.90;;;;;;;25.08;100.00;101229.19;10375538;28;20044;-82
2023/06/21 01:22:20;;;;;;;0.55;0.47;;;;;;;25.33;100.00;101238.09;10374427;28;20137;-83
2023/06/21 01:27:43;;;;;;;1.10;0.40;;;;;;;24.94;100.00;101245.41;10366726;28;20056;-85
2023/06/21 01:32:45;;;;;;;0.43;0.43;;;;;;;25.28;100.00;101241.78;10365253;28;20061;-82
2023/06/21 01:37:50;;;;;;;1.00;0.60;;;;;;;24.93;100.00;101257.72;10374029;28;20042;-84
2023/06/21 01:42:53;;;;;;;0.93;0.47;;;;;;;24.63;100.00;101265.53;10363683;28;20050;-83
2023/06/21 01:47:57;;;;;;;3.40;1.05;;;;;;;24.57;100.00;101255.16;10372298;28;20034;-82
2023/06/21 01:53:01;;;;;;;0.98;0.85;;;;;;;24.81;100.00;101253.66;10364416;28;20137;-84
2023/06/21 01:58:04;;;;;;;2.25;1.35;;;;;;;24.68;100.00;101257.53;10364216;28;20080;-83
2023/06/21 02:03:09;;;;;;;1.02;0.73;;;;;;;24.89;100.00;101255.22;10367802;28;20142;-83
2023/06/21 02:08:16;;;;;;;0.20;0.20;;;;;;;24.59;100.00;101265.66;10355893;28;20455;-82
2023/06/21 02:13:17;;;;;;;0.90;0.82;;;;;;;24.61;100.00;101283.16;10367162;28;20073;-80
2023/06/21 02:18:23;;;;;;;2.72;0.95;;;;;;;24.67;100.00;101288.31;10365230;28;20065;-82
2023/06/21 02:23:25;;;;;;;1.15;1.02;;;;;;;24.99;100.00;101281.25;10353973;28;20061;-80
2023/06/21 02:28:26;;;;;;;1.65;0.50;;;;;;;24.94;100.00;101284.94;10364331;28;20042;-82
2023/06/21 02:33:28;;;;;;;0.90;0.70;;;;;;;25.22;100.00;101285.00;10384706;28;20119;-82
2023/06/21 02:38:31;;;;;;;0.82;0.68;;;;;;;25.41;100.00;101274.78;10365372;28;20116;-81
2023/06/21 02:43:33;;;;;;;1.77;1.38;;;;;;;25.61;100.00;101271.53;10373410;28;20053;-81
2023/06/21 02:48:36;;;;;;;0.38;0.30;;;;;;;24.96;100.00;101283.09;10366429;28;20117;-80
2023/06/21 02:53:38;;;;;;;2.00;0.95;;;;;;;24.76;100.00;101292.44;10375960;28;20497;-80
2023/06/21 02:58:39;;;;;;;0.45;0.45;;;;;;;24.88;100.00;101296.53;10370399;28;20042;-83
2023/06/21 03:03:43;;;;;;;1.02;0.70;;;;;;;24.55;100.00;101320.19;10378900;28;20095;-81
2023/06/21 03:08:45;;;;;;;1.05;0.85;;;;;;;23.91;100.00;101337.50;10377299;28;20064;-82
2023/06/21 03:13:47;;;;;;;1.48;1.00;;;;;;;24.15;100.00;101331.75;10372362;28;20532;-84
2023/06/21 03:18:49;;;;;;;0.85;0.73;;;;;;;24.01;100.00;101346.09;10394594;28;20085;-81
2023/06/21 03:23:50;;;;;;;1.13;0.82;;;;;;;24.63;100.00;101339.28;10373550;28;20076;-80
2023/06/21 03:28:53;;;;;;;0.73;0.65;;;;;;;24.90;100.00;101331.59;10374851;28;20041;-80
2023/06/21 03:33:55;;;;;;;1.05;0.80;;;;;;;24.91;100.00;101340.38;10373321;28;20428;-81
2023/06/21 03:39:00;;;;;;;1.35;0.57;;;;;;;24.67;100.00;101340.09;10368594;28;20054;-81
2023/06/21 03:44:01;;;;;;;1.65;1.20;;;;;;;24.26;100.00;101355.16;10349527;28;20061;-80
2023/06/21 03:49:04;;;;;;;0.73;0.60;;;;;;;24.48;100.00;101371.28;10366142;28;20057;-82
2023/06/21 03:54:06;;;;;;;1.27;0.60;;;;;;;24.43;100.00;101383.72;10364685;28;20049;-81
2023/06/21 03:59:07;;;;;;;4.10;1.15;;;;;;;25.15;100.00;101381.88;10363812;28;20053;-81
2023/06/21 04:04:09;;;;;;;1.27;1.08;;;;;;;24.55;100.00;101383.41;10358263;28;20054;-80
2023/06/21 04:09:11;;;;;;;1.85;0.55;;;;;;;24.22;100.00;101386.81;10366479;28;20049;-80
2023/06/21 04:14:14;;;;;;;1.40;1.13;;;;;;;24.35;100.00;101394.44;10351449;28;20050;-81
2023/06/21 04:19:16;;;;;;;0.95;0.77;;;;;;;24.85;100.00;101410.78;10373492;28;20107;-81
2023/06/21 04:24:17;;;;;;;3.70;0.95;;;;;;;25.56;100.00;101392.19;10364276;28;20049;-82
2023/06/21 04:29:20;;;;;;;3.75;1.02;;;;;;;25.98;100.00;101381.22;10355664;28;20061;-83
2023/06/21 04:34:26;;;;;;;0.47;0.40;;;;;;;26.31;100.00;101387.31;10367670;28;20050;-82
2023/06/21 04:39:28;;;;;;;0.22;0.22;;;;;;;26.31;100.00;101387.31;10352157;28;20484;-82
2023/06/21 04:44:30;;;;;;;0.43;0.28;;;;;;;25.64;100.00;101377.00;10361582;28;20571;-83
2023/06/21 04:49:31;;;;;;;1.30;0.77;;;;;;;25.89;100.00;101386.78;10363523;28;20096;-83
2023/06/21 04:54:33;;;;;;;0.82;0.68;;;;;;;25.83;100.00;101389.63;10360899;28;20489;-83
2023/06/21 04:59:35;;;;;;;1.63;0.90;;;;;;;26.28;100.00;101389.13;10368732;28;20631;-82
2023/06/21 05:04:36;;;;;;;0.63;0.38;;;;;;;25.70;100.00;101393.53;10358454;28;20046;-84
2023/06/21 05:09:38;;;;;;;1.00;0.82;;;;;;;25.12;100.00;101394.28;10365687;28;20049;-85
2023/06/21 05:14:39;;;;;;;2.50;1.65;;;;;;;25.91;100.00;101406.09;10368929;28;20390;-85
2023/06/21 05:19:42;;;;;;;2.30;0.93;;;;;;;25.62;100.00;101414.88;10373975;28;20062;-83
2023/06/21 05:24:44;;;;;;;0.93;0.73;;;;;;;26.32;100.00;101420.72;10376032;28;20030;-83
2023/06/21 05:29:45;;;;;;;2.47;1.50;;;;;;;25.79;100.00;101420.53;10377360;28;20050;-83
2023/06/21 05:34:47;;;;;;;0.52;0.40;;;;;;;25.44;100.00;101434.72;10369199;28;20046;-82
2023/06/21 05:39:49;;;;;;;1.48;1.13;;;;;;;26.24;100.00;101429.75;10368314;28;20783;-84
2023/06/21 05:44:51;;;;;;;1.15;0.90;;;;;;;25.95;100.00;101438.53;10388619;28;20065;-83
2023/06/21 05:49:52;;;;;;;1.02;0.80;;;;;;;26.06;100.00;101440.84;10366623;28;20050;-83
2023/06/21 05:54:54;;;;;;;2.00;0.80;;;;;;;25.94;100.00;101448.25;10375752;28;20050;-83
2023/06/21 05:59:56;;;;;;;3.63;2.67;;;;;;;26.87;100.00;101455.91;10376481;28;20112;-84
2023/06/21 06:04:57;;;;;;;2.97;1.58;;;;;;;26.72;100.00;101453.75;10372630;28;20050;-82
2023/06/21 06:09:59;;;;;;;1.95;1.42;;;;;;;26.33;100.00;101455.00;10393819;28;20062;-84
2023/06/21 06:15:01;;;;;;;1.50;1.00;;;;;;;26.34;100.00;101455.88;10381100;28;20065;-82
2023/06/21 06:20:06;;;;;;;2.97;1.13;;;;;;;26.11;100.00;101460.97;10388843;28;20050;-81
2023/06/21 06:25:09;;;;;;;1.90;1.20;;;;;;;26.85;100.00;101480.69;10391190;28;20069;-82
2023/06/21 06:30:11;;;;;;;2.33;1.27;;;;;;;26.96;100.00;101493.53;10384826;28;20532;-81
2023/06/21 06:35:13;;;;;;;2.22;1.38;;;;;;;26.38;100.00;101494.50;10392638;28;20049;-82
2023/06/21 06:40:14;;;;;;;2.72;1.60;;;;;;;26.35;100.00;101494.56;10381479;28;20531;-85
2023/06/21 06:45:16;;;;;;;2.30;1.08;;;;;;;27.29;100.00;101494.16;10371792;28;20050;-80
2023/06/21 06:50:17;;;;;;;3.13;2.25;;;;;;;26.83;100.00;101496.59;10363940;28;20401;-77
2023/06/21 06:55:19;;;;;;;1.20;0.93;;;;;;;27.10;100.00;101509.81;10343879;28;20049;-78
2023/06/21 07:00:21;;;;;;;2.35;1.63;;;;;;;26.71;100.00;101512.81;10369237;28;20061;-78
2023/06/21 07:05:23;;;;;;;1.77;1.23;;;;;;;26.61;100.00;101525.47;10370435;28;20084;-80
2023/06/21 07:10:25;;;;;;;2.13;1.15;;;;;;;26.63;100.00;101530.69;10370753;28;20076;-77
2023/06/21 07:15:28;;;;;;;1.88;1.02;;;;;;;26.86;100.00;101528.22;10382961;28;20045;-81
2023/06/21 07:20:30;;;;;;;1.52;1.30;;;;;;;27.75;100.00;101531.38;10372233;28;20575;-79
2023/06/21 07:25:32;;;;;;;2.50;1.48;;;;;;;28.22;100.00;101524.38;10378468;28;20069;-78
2023/06/21 07:30:34;;;;;;;1.48;1.30;;;;;;;27.13;100.00;101541.44;10387521;28;20042;-79
2023/06/21 07:35:36;;;;;;;5.63;2.00;;;;;;;26.70;100.00;101548.06;10377421;28;20128;-77
2023/06/21 07:40:37;;;;;;;3.03;1.58;;;;;;;28.87;100.00;101529.78;10371099;28;20049;-77
2023/06/21 07:45:40;;;;;;;3.15;1.90;;;;;;;26.50;100.00;101546.94;10375283;28;20030;-79
2023/06/21 07:50:42;;;;;;;4.90;1.02;;;;;;;26.99;100.00;101555.13;10372352;28;20068;-76
2023/06/21 07:55:44;;;;;;;1.13;1.00;;;;;;;26.70;100.00;101559.53;10376025;28;20497;-79
2023/06/21 08:00:46;;;;;;;1.05;0.88;;;;;;;27.38;100.00;101559.09;10373844;28;20050;-79
2023/06/21 08:05:47;;;;;;;2.53;1.77;;;;;;;27.15;100.00;101566.03;10372060;28;20064;-76
2023/06/21 08:10:49;;;;;;;1.63;1.10;;;;;;;27.59;100.00;101569.91;10373235;28;20567;-79
2023/06/21 08:15:51;;;;;;;2.05;1.38;;;;;;;27.62;100.00;101581.25;10371283;28;20038;-77
2023/06/21 08:20:52;;;;;;;1.02;0.60;;;;;;;28.33;100.00;101572.53;10377873;28;20076;-80
2023/06/21 08:25:56;;;;;;;1.20;1.10;;;;;;;29.10;100.00;101569.47;10373310;28;20421;-79
2023/06/21 08:30:58;;;;;;;1.38;1.02;;;;;;;29.85;100.00;101574.28;10384139;28;20124;-78
2023/06/21 08:36:00;;;;;;;2.65;1.13;;;;;;;28.20;100.00;101576.56;10375198;28;20100;-79
2023/06/21 08:41:05;;;;;;;2.72;1.23;;;;;;;29.89;100.00;101583.84;10377192;28;20603;-79
2023/06/21 08:46:08;;;;;;;1.30;1.15;;;;;;;28.76;100.00;101596.50;10381718;28;20046;-78
2023/06/21 08:51:10;;;;;;;2.40;1.50;;;;;;;29.29;100.00;101588.16;10381932;28;20075;-78
2023/06/21 08:56:16;;;;;;;1.65;1.25;;;;;;;29.27;100.00;101591.78;10377260;28;20045;-78
2023/06/21 09:01:21;;;;;;;0.98;0.70;;;;;;;27.82;100.00;101609.66;10372861;28;20046;-79
2023/06/21 09:06:24;;;;;;;2.80;1.95;;;;;;;30.09;100.00;101606.03;10373276;28;20046;-79
2023/06/21 09:11:26;;;;;;;1.00;0.90;;;;;;;29.99;100.00;101601.13;10380919;28;20033;-77
2023/06/21 09:16:28;;;;;;;0.80;0.80;;;;;;;30.32;100.00;101602.28;10381683;28;20037;-78
2023/06/21 09:21:31;;;;;;;1.85;1.20;;;;;;;28.83;100.00;101607.75;10370559;28;20054;-77
2023/06/21 09:26:32;;;;;;;1.83;1.23;;;;;;;30.22;100.00;101607.19;10373858;28;20180;-79
2023/06/21 09:31:34;;;;;;;0.77;0.63;;;;;;;29.19;100.00;101608.00;10381827;28;20046;-81
2023/06/21 09:36:35;;;;;;;2.85;1.33;;;;;;;29.34;100.00;101613.66;10376338;28;20042;-78
2023/06/21 09:41:38;;;;;;;1.75;1.13;;;;;;;28.84;100.00;101620.09;10374562;28;20064;-76
2023/06/21 09:46:40;;;;;;;1.00;0.90;;;;;;;30.85;100.00;101611.34;10394827;28;20100;-79
2023/06/21 09:51:44;;;;;;;1.73;1.02;;;;;;;30.19;100.00;101623.28;10387532;28;20058;-79
2023/06/21 09:56:45;;;;;;;2.05;1.17;;;;;;;29.24;100.00;101618.44;10373012;28;20501;-79
2023/06/21 10:01:48;;;;;;;1.38;0.80;;;;;;;30.19;100.00;101631.25;10383817;28;20061;-79
2023/06/21 10:06:51;;;;;;;1.13;1.02;;;;;;;30.66;100.00;101628.19;10383509;28;20048;-78
2023/06/21 10:11:54;;;;;;;0.80;0.63;;;;;;;31.10;100.00;101634.09;10380906;28;20042;-77
2023/06/21 10:16:57;;;;;;;0.80;0.63;;;;;;;31.20;100.00;101632.72;10377422;28;20041;-80
2023/06/21 10:22:01;;;;;;;0.98;0.47;;;;;;;31.64;100.00;101626.94;10381590;28;20049;-76
2023/06/21 10:27:06;;;;;;;1.33;0.25;;;;;;;31.11;100.00;101634.06;10376503;28;20042;-80
2023/06/21 10:32:10;;;;;;;0.55;0.47;;;;;;;31.86;100.00;101627.66;10370137;28;20045;-79
2023/06/21 10:37:22;;;;;;;0.35;0.35;;;;;;;31.88;100.00;101631.94;10373213;28;20669;-78
2023/06/21 10:42:24;;;;;;;0.50;0.20;;;;;;;31.81;100.00;101641.22;10365471;28;20040;-79
2023/06/21 10:47:26;;;;;;;0.57;0.57;;;;;;;30.57;100.00;101643.72;10367961;28;20108;-78
2023/06/21 10:52:29;;;;;;;0.13;0.13;;;;;;;30.47;100.00;101653.91;10366023;28;20049;-79
2023/06/21 10:57:34;;;;;;;0.40;0.30;;;;;;;30.22;100.00;101650.56;10375225;28;20073;-79
2023/06/21 11:02:36;;;;;;;0.98;0.40;;;;;;;29.99;100.00;101648.94;10374666;28;20052;-79
2023/06/21 11:07:38;;;;;;;0.75;0.38;;;;;;;31.67;100.00;101659.72;10385683;28;20038;-77
2023/06/21 11:12:40;;;;;;;0.28;0.28;;;;;;;30.98;100.00;101657.69;10370051;28;20457;-80
2023/06/21 11:17:42;;;;;;;0.93;0.73;;;;;;;31.25;100.00;101667.09;10377400;28;20818;-79
2023/06/21 11:22:56;;;;;;;0.10;0.10;;;;;;;31.71;100.00;101679.91;10361269;28;20046;-78
2023/06/21 11:28:19;;;;;;;0.20;0.20;;;;;;;32.24;100.00;101672.75;10360701;28;20042;-80
2023/06/21 11:33:22;;;;;;;0.22;0.20;;;;;;;31.96;97.34;101674.16;10369259;28;20038;-80
2023/06/21 11:38:24;;;;;;;0.10;0.10;;;;;;;31.63;93.42;101677.63;10376706;28;20076;-80
2023/06/21 11:43:26;;;;;;;0.47;0.28;;;;;;;32.06;94.24;101677.19;10360894;28;20045;-78
2023/06/21 11:48:29;;;;;;;0.22;0.20;;;;;;;32.46;95.72;101680.44;10368989;28;20045;-78
2023/06/21 11:53:40;;;;;;;0.52;0.30;;;;;;;31.17;93.76;101686.09;10367428;28;20132;-78
2023/06/21 11:58:42;;;;;;;0.35;0.15;;;;;;;31.02;89.89;101693.84;10377948;28;20042;-80
2023/06/21 12:03:44;;;;;;;0.90;0.57;;;;;;;31.35;92.37;101680.81;10353366;28;20046;-78
2023/06/21 12:08:45;;;;;;;0.80;0.50;;;;;;;32.13;97.36;101686.63;10362823;28;20076;-79
2023/06/21 12:13:47;;;;;;;0.15;0.13;;;;;;;31.32;90.22;101685.34;10379198;28;20073;-79
2023/06/21 12:18:49;;;;;;;0.65;0.38;;;;;;;31.87;92.44;101691.50;10380732;28;20053;-80
2023/06/21 12:23:57;;;;;;;0.10;0.10;;;;;;;32.07;85.60;101689.59;10363438;28;20571;-80
2023/06/21 12:28:59;;;;;;;0.20;0.15;;;;;;;31.76;88.26;101700.06;10377866;28;20041;-79
2023/06/21 12:34:02;;;;;;;0.28;0.10;;;;;;;32.07;85.70;101689.59;10361483;28;20081;-79
2023/06/21 12:39:07;;;;;;;0.80;0.22;;;;;;;31.88;87.30;101701.22;10366712;28;20068;-80
2023/06/21 12:44:17;;;;;;;0.10;0.10;;;;;;;31.71;86.53;101706.53;10366435;28;20108;-78
2023/06/21 12:49:19;;;;;;;0.20;0.17;;;;;;;30.91;85.59;101711.25;10364803;28;20512;-80
2023/06/21 12:54:21;;;;;;;0.00;0.00;;;;;;;31.79;83.68;101721.22;10362640;28;20050;-78
2023/06/21 12:59:23;;;;;;;0.13;0.13;;;;;;;32.30;86.61;101730.19;10368997;28;20045;-79
2023/06/21 13:04:24;;;;;;;0.43;0.10;;;;;;;31.64;91.62;101735.28;10368584;28;20057;-77
2023/06/21 13:09:27;;;;;;;0.25;0.17;;;;;;;32.16;80.49;101739.75;10370140;28;20045;-80
2023/06/21 13:14:29;;;;;;;0.47;0.30;;;;;;;32.17;87.37;101741.47;10368995;28;20513;-79
2023/06/21 13:19:30;;;;;;;0.68;0.25;;;;;;;32.25;86.81;101751.75;10374815;28;20119;-78
2023/06/21 13:24:32;;;;;;;0.10;0.10;;;;;;;31.76;89.96;101736.50;10362139;28;20120;-81
2023/06/21 13:29:34;;;;;;;0.52;0.20;;;;;;;31.25;87.38;101738.97;10376968;28;20485;-79
2023/06/21 13:34:36;;;;;;;0.10;0.10;;;;;;;32.26;88.57;101741.03;10363838;28;20053;-80
2023/06/21 13:39:38;;;;;;;0.10;0.10;;;;;;;31.73;87.54;101739.31;10355942;28;20053;-79
2023/06/21 13:44:39;;;;;;;0.45;0.17;;;;;;;31.41;86.47;101736.41;10361958;28;20053;-78
2023/06/21 13:49:48;;;;;;;0.10;0.10;;;;;;;31.80;83.37;101738.06;10363482;28;20046;-79
2023/06/21 13:54:50;;;;;;;;;;;;;;;31.80;88.30;101732.72;10369629;28;20054;-78
2023/06/21 13:59:52;;;;;;;0.82;0.17;;;;;;;31.65;87.06;101734.31;10383231;28;19921;-80
2023/06/21 14:04:53;;;;;;;0.65;0.40;;;;;;;31.96;82.04;101732.78;10369211;28;20053;-78
2023/06/21 14:09:55;;;;;;;0.32;0.30;;;;;;;32.01;86.90;101729.88;10369444;28;20045;-78
2023/06/21 14:14:57;;;;;;;0.10;0.08;;;;;;;32.12;88.38;101732.88;10379647;28;20049;-78
2023/06/21 14:20:04;;;;;;;0.30;0.22;;;;;;;31.36;84.87;101733.13;10357750;28;20056;-79
2023/06/21 14:25:10;;;;;;;0.17;0.10;;;;;;;31.56;83.74;101722.34;10368904;28;20052;-80
2023/06/21 14:30:14;;;;;;;0.25;0.20;;;;;;;31.58;84.97;101723.13;10361660;28;20050;-79
2023/06/21 14:35:16;;;;;;;0.20;0.20;;;;;;;31.99;89.10;101721.09;10368637;28;20061;-81
2023/06/21 14:40:17;;;;;;;0.10;0.10;;;;;;;32.05;88.44;101723.47;10371494;28;20120;-82
2023/06/21 14:45:19;;;;;;;0.32;0.10;;;;;;;32.65;86.61;101724.78;10356608;28;20528;-81
2023/06/21 14:50:20;;;;;;;0.80;0.75;;;;;;;32.04;84.50;101729.75;10366836;28;20049;-82
2023/06/21 14:55:22;;;;;;;0.00;0.00;;;;;;;32.33;81.89;101735.38;10366185;28;20050;-79
2023/06/21 15:00:24;;;;;;;0.35;0.28;;;;;;;31.58;81.29;101744.44;10373057;28;20049;-80
2023/06/21 15:05:26;;;;;;;0.28;0.10;;;;;;;31.45;80.21;101743.31;10376112;28;20041;-81
2023/06/21 15:10:28;;;;;;;0.05;0.05;;;;;;;32.01;86.54;101741.44;10364788;28;20133;-81
2023/06/21 15:15:30;;;;;;;0.00;0.00;;;;;;;32.35;80.41;101738.81;10373585;28;20049;-80
2023/06/21 15:20:33;;;;;;;0.00;0.00;;;;;;;31.56;86.56;101746.31;10370690;28;20662;-81
2023/06/21 15:25:34;;;;;;;0.20;0.10;;;;;;;30.99;83.90;101747.22;10382702;28;20044;-82
2023/06/21 15:30:36;;;;;;;0.10;0.10;;;;;;;30.94;80.26;101749.22;10377329;28;20072;-81
2023/06/21 15:35:38;;;;;;;0.00;0.00;;;;;;;31.20;76.96;101744.50;10371597;28;20080;-81
2023/06/21 15:40:39;;;;;;;0.10;0.10;;;;;;;32.23;84.84;101743.84;10375786;28;20050;-80
2023/06/21 15:45:41;;;;;;;0.15;0.15;;;;;;;32.08;79.23;101747.28;10363850;28;20471;-81
2023/06/21 15:50:42;;;;;;;0.10;0.05;;;;;;;31.70;75.25;101740.31;10383675;28;20046;-82
2023/06/21 15:55:44;;;;;;;0.17;0.13;;;;;;;31.64;77.70;101748.59;10376304;28;20186;-83
2023/06/21 16:00:45;;;;;;;0.00;0.00;;;;;;;31.69;73.43;101745.72;10375376;28;20045;-81
2023/06/21 16:05:49;;;;;;;0.30;0.28;;;;;;;31.49;78.83;101756.41;10381050;28;20049;-83
2023/06/21 16:10:51;;;;;;;0.10;0.10;;;;;;;30.85;56.42;101755.00;10381905;28;20048;-83
2023/06/21 16:15:57;;;;;;;0.15;0.03;;;;;;;31.17;59.01;101749.97;10367778;28;20088;-79
2023/06/21 16:20:59;;;;;;;0.00;0.00;;;;;;;31.02;58.57;101755.06;10380218;28;20076;-79
2023/06/21 16:26:01;;;;;;;0.00;0.00;;;;;;;31.45;64.54;101751.31;10372990;28;20057;-80
2023/06/21 16:31:03;;;;;;;0.00;0.00;;;;;;;31.02;66.78;101752.38;10387072;28;20056;-80
2023/06/21 16:36:04;;;;;;;0.05;0.05;;;;;;;30.85;58.14;101755.00;10371361;28;20149;-81
2023/06/21 16:41:06;;;;;;;0.00;0.00;;;;;;;31.21;60.67;101753.34;10348036;28;22025;-81
2023/06/21 16:46:08;;;;;;;2.70;0.57;;;;;;;31.10;60.26;101751.19;10362793;28;20405;-79
2023/06/21 16:51:09;;;;;;;0.57;0.20;;;;;;;30.98;63.36;101740.19;10353026;28;20084;-82
2023/06/21 16:56:14;;;;;;;0.00;0.00;;;;;;;31.19;71.09;101741.94;10352360;28;20136;-82
2023/06/21 17:01:15;;;;;;;0.13;0.13;;;;;;;30.95;70.25;101755.44;10363209;28;20050;-82
2023/06/21 17:06:21;;;;;;;0.00;0.00;;;;;;;31.06;68.03;101754.91;10354353;28;20077;-81
2023/06/21 17:11:25;;;;;;;0.28;0.20;;;;;;;31.25;64.54;101746.94;10362697;28;20439;-79
2023/06/21 17:16:26;;;;;;;0.30;0.20;;;;;;;31.52;69.13;101750.06;10371623;28;20046;-79
2023/06/21 17:21:28;;;;;;;0.00;0.00;;;;;;;31.35;75.07;101745.56;10364548;28;20046;-79
2023/06/21 17:26:29;;;;;;;0.00;0.00;;;;;;;31.43;70.54;101763.81;10377633;28;20073;-79
2023/06/21 17:31:31;;;;;;;0.00;0.00;;;;;;;30.74;72.11;101775.91;10372049;28;20100;-79
2023/06/21 17:36:33;;;;;;;0.17;0.00;;;;;;;31.30;71.31;101788.41;10374807;28;20042;-82
2023/06/21 17:41:34;;;;;;;0.00;0.00;;;;;;;31.70;64.25;101763.41;10370771;28;20473;-81
2023/06/21 17:46:36;;;;;;;0.15;0.10;;;;;;;31.28;69.59;101784.06;10379476;28;20460;-82
2023/06/21 17:51:37;;;;;;;0.05;0.00;;;;;;;31.16;68.90;101775.72;10367689;28;20117;-81
2023/06/21 17:56:39;;;;;;;0.17;0.15;;;;;;;31.14;69.50;101771.41;10372265;28;20046;-83
2023/06/21 18:01:40;;;;;;;0.00;0.00;;;;;;;31.38;70.93;101763.19;10388320;28;20107;-78
2023/06/21 18:06:42;;;;;;;3.00;0.32;;;;;;;30.62;68.70;101774.66;10377800;28;20042;-79
2023/06/21 18:11:43;;;;;;;0.10;0.00;;;;;;;30.44;69.76;101771.00;10379916;28;20099;-80
2023/06/21 18:16:45;;;;;;;0.13;0.13;;;;;;;31.05;75.27;101766.50;10390321;28;20512;-81
2023/06/21 18:21:47;;;;;;;0.00;0.00;;;;;;;30.75;73.87;101769.66;10385970;28;20054;-81
2023/06/21 18:26:49;;;;;;;0.00;0.00;;;;;;;30.39;72.96;101768.53;10384602;28;20344;-81
2023/06/21 18:31:51;;;;;;;0.00;0.00;;;;;;;30.39;74.74;101769.41;10381366;28;20049;-81
2023/06/21 18:36:53;;;;;;;0.00;0.00;;;;;;;30.46;77.65;101771.78;10377190;28;20496;-85
2023/06/21 18:41:54;;;;;;;0.00;0.00;;;;;;;29.62;86.50;101761.16;10377819;28;20140;-81
2023/06/21 18:46:56;;;;;;;0.20;0.00;;;;;;;29.05;83.85;101773.06;10367954;28;20570;-81
2023/06/21 18:51:57;;;;;;;0.00;0.00;;;;;;;29.15;87.36;101770.06;10366211;28;20122;-80
2023/06/21 18:56:59;;;;;;;0.05;0.05;;;;;;;29.01;87.93;101757.31;10378085;28;20038;-80
2023/06/21 19:02:00;;;;;;;0.00;0.00;;;;;;;28.93;90.15;101768.25;10377584;28;20058;-79
2023/06/21 19:07:02;;;;;;;0.00;0.00;;;;;;;28.62;90.21;101758.75;10379662;28;20045;-81
2023/06/21 19:12:04;;;;;;;0.00;0.00;;;;;;;28.45;89.62;101761.97;10384798;28;20065;-83
2023/06/21 19:17:08;;;;;;;0.00;0.00;;;;;;;28.65;91.21;101758.63;10369963;28;20041;-82
2023/06/21 19:22:11;;;;;;;0.00;0.00;;;;;;;28.48;95.97;101761.88;10382139;28;20053;-83
2023/06/21 19:27:12;;;;;;;0.00;0.00;;;;;;;28.45;95.22;101754.91;10365242;28;20050;-84
2023/06/21 19:32:14;;;;;;;0.17;0.17;;;;;;;27.97;100.00;101750.38;10382318;28;20390;-83
2023/06/21 19:37:16;;;;;;;0.00;0.00;;;;;;;27.64;100.00;101758.53;10381014;28;20541;-82
2023/06/21 19:42:17;;;;;;;0.10;0.00;;;;;;;27.93;97.38;101759.34;10380171;28;20051;-81
2023/06/21 19:47:19;;;;;;;0.13;0.13;;;;;;;28.17;93.58;101763.84;10376302;28;20100;-82
2023/06/21 19:52:20;;;;;;;0.05;0.05;;;;;;;28.38;92.40;101781.69;10367736;28;20058;-81
2023/06/21 19:57:22;;;;;;;0.00;0.00;;;;;;;28.23;94.05;101783.09;10371726;28;20053;-82
2023/06/21 20:02:24;;;;;;;0.00;0.00;;;;;;;27.84;100.00;101787.88;10377319;28;20055;-84
2023/06/21 20:07:25;;;;;;;0.20;0.10;;;;;;;27.44;100.00;101797.06;10376838;28;20037;-82
2023/06/21 20:12:29;;;;;;;0.00;0.00;;;;;;;27.46;100.00;101811.13;10396835;28;20050;-84
2023/06/21 20:17:30;;;;;;;0.47;0.17;;;;;;;26.29;100.00;101817.84;10378729;28;20042;-82
2023/06/21 20:22:32;;;;;;;0.10;0.10;;;;;;;26.08;100.00;101820.13;10378787;28;20053;-83
2023/06/21 20:27:33;;;;;;;0.73;0.40;;;;;;;26.29;100.00;101833.72;10374231;28;20046;-84
2023/06/21 20:32:35;;;;;;;0.10;0.10;;;;;;;26.23;100.00;101840.03;10370143;28;20049;-82
2023/06/21 20:37:40;;;;;;;0.00;0.00;;;;;;;26.18;100.00;101836.63;10372935;28;20049;-81
2023/06/21 20:42:42;;;;;;;0.08;0.08;;;;;;;25.97;100.00;101849.41;10375378;28;20097;-84
2023/06/21 20:47:43;;;;;;;0.32;0.20;;;;;;;25.96;100.00;101852.94;10368907;28;20050;-82
2023/06/21 20:52:45;;;;;;;0.00;0.00;;;;;;;26.00;100.00;101860.81;10378364;28;20045;-82
2023/06/21 20:57:46;;;;;;;4.93;0.30;;;;;;;25.85;100.00;101864.66;10378457;28;20045;-82
2023/06/21 21:02:48;;;;;;;0.10;0.10;;;;;;;25.80;100.00;101863.00;10367220;28;20429;-82
2023/06/21 21:07:50;;;;;;;0.00;0.00;;;;;;;26.26;100.00;101866.34;10381636;28;20093;-83
2023/06/21 21:12:51;;;;;;;0.10;0.10;;;;;;;26.28;100.00;101875.13;10373274;28;20056;-82
2023/06/21 21:17:53;;;;;;;0.10;0.10;;;;;;;25.88;100.00;101878.66;10381922;28;20079;-82
2023/06/21 21:22:55;;;;;;;0.20;0.20;;;;;;;26.01;100.00;101875.75;10376096;28;20041;-82
2023/06/21 21:27:56;;;;;;;0.10;0.10;;;;;;;25.91;100.00;101875.97;10376575;28;20033;-82
2023/06/21 21:32:58;;;;;;;0.00;0.00;;;;;;;25.53;100.00;101888.22;10378916;28;20504;-82
2023/06/21 21:38:00;;;;;;;0.35;0.35;;;;;;;26.00;100.00;101889.84;10362800;28;20041;-82
2023/06/21 21:43:02;;;;;;;0.20;0.10;;;;;;;26.54;100.00;101896.50;10377932;28;20050;-81
2023/06/21 21:48:04;;;;;;;0.00;0.00;;;;;;;26.69;100.00;101890.81;10366397;28;20141;-81
2023/06/21 21:53:06;;;;;;;0.10;0.00;;;;;;;26.33;100.00;101889.97;10366482;28;20146;-82
2023/06/21 21:58:07;;;;;;;0.10;0.10;;;;;;;26.64;100.00;101887.44;10368945;28;20092;-82
2023/06/21 22:03:09;;;;;;;0.10;0.10;;;;;;;26.48;100.00;101886.94;10371745;28;20057;-81
2023/06/21 22:08:11;;;;;;;1.13;0.13;;;;;;;26.36;100.00;101887.25;10378844;28;20068;-82
2023/06/21 22:13:13;;;;;;;0.10;0.10;;;;;;;25.92;100.00;101892.66;10379651;28;20069;-82
2023/06/21 22:18:15;;;;;;;0.25;0.10;;;;;;;26.33;100.00;101887.31;10379905;28;20085;-83
2023/06/21 22:23:17;;;;;;;0.08;0.03;;;;;;;25.97;100.00;101899.56;10371205;28;20104;-83
2023/06/21 22:28:19;;;;;;;0.10;0.10;;;;;;;26.19;100.00;101893.81;10375028;28;20092;-85
2023/06/21 22:33:23;;;;;;;0.00;0.00;;;;;;;25.33;100.00;101892.13;10375418;28;20363;-82
2023/06/21 22:38:24;;;;;;;0.00;0.00;;;;;;;25.37;100.00;101884.16;10373245;28;20475;-82
2023/06/21 22:43:26;;;;;;;0.00;0.00;;;;;;;24.83;100.00;101880.81;10382246;28;20053;-84
2023/06/21 22:48:28;;;;;;;0.00;0.00;;;;;;;25.35;100.00;101878.91;10372638;28;20049;-83
2023/06/21 22:53:30;;;;;;;0.45;0.40;;;;;;;25.97;100.00;101891.66;10378789;28;20041;-81
2023/06/21 22:58:32;;;;;;;0.15;0.15;;;;;;;25.71;100.00;101894.03;10383286;28;20296;-83